SAS33K LIRF-EKCH
Flight info
| Callsign | SAS33K |
|---|---|
| Flight time | N/A |
| Altitude | 38000 |
| Route | SOVAN DCT AMTEL DCT NUKNI DCT SUMIR DCT BRENO DCT KONIN DCT ERNAS M726 KEMES DCT BKD M726 ROSOK Q296 MONAK |
| Aircraft | A319/M-SDE3FGHIRWY/LB1 |
Departure
| Time | N/A |
|---|---|
| Airport | Rome–Fiumicino Leonardo da Vinci International Airport (LIRF) |
Arrival
| Time | 2026-04-25 15:26 |
|---|---|
| Airport | Copenhagen Kastrup Airport (EKCH) |
| Time | Latitude | Longitude | Altitude | Speed | Heading |
|---|---|---|---|---|---|
| 2026-04-25 15:19 | 55.49420 | 12.98766 | 2969 ft | 168 kts | 302° |
| 2026-04-25 15:20 | 55.50065 | 12.97050 | 2968 ft | 168 kts | 302° |
| 2026-04-25 15:20 | 55.50694 | 12.95374 | 2962 ft | 153 kts | 302° |
| 2026-04-25 15:20 | 55.51232 | 12.93939 | 2959 ft | 130 kts | 302° |
| 2026-04-25 15:20 | 55.51739 | 12.92586 | 2967 ft | 136 kts | 302° |
| 2026-04-25 15:21 | 55.52262 | 12.91188 | 2962 ft | 137 kts | 302° |
| 2026-04-25 15:21 | 55.52789 | 12.89780 | 2944 ft | 139 kts | 303° |
| 2026-04-25 15:21 | 55.53323 | 12.88353 | 2873 ft | 139 kts | 303° |
| 2026-04-25 15:21 | 55.53854 | 12.86932 | 2737 ft | 139 kts | 303° |
| 2026-04-25 15:22 | 55.54384 | 12.85511 | 2561 ft | 138 kts | 303° |
| 2026-04-25 15:22 | 55.54912 | 12.84098 | 2395 ft | 138 kts | 302° |
| 2026-04-25 15:22 | 55.55438 | 12.82690 | 2206 ft | 137 kts | 302° |
| 2026-04-25 15:22 | 55.55953 | 12.81307 | 2020 ft | 136 kts | 302° |
| 2026-04-25 15:23 | 55.56474 | 12.79912 | 1834 ft | 136 kts | 302° |
| 2026-04-25 15:23 | 55.56992 | 12.78520 | 1650 ft | 135 kts | 302° |
| 2026-04-25 15:23 | 55.57484 | 12.77200 | 1462 ft | 123 kts | 303° |
| 2026-04-25 15:23 | 55.57938 | 12.75979 | 1303 ft | 116 kts | 303° |
| 2026-04-25 15:24 | 55.58376 | 12.74802 | 1147 ft | 113 kts | 303° |
| 2026-04-25 15:24 | 55.58807 | 12.73642 | 988 ft | 113 kts | 302° |
| 2026-04-25 15:24 | 55.59246 | 12.72475 | 800 ft | 115 kts | 302° |
| 2026-04-25 15:24 | 55.59536 | 12.71709 | 703 ft | 114 kts | 301° |
| 2026-04-25 15:25 | 55.60105 | 12.70152 | 517 ft | 114 kts | 300° |
| 2026-04-25 15:25 | 55.60532 | 12.68966 | 326 ft | 114 kts | 301° |
| 2026-04-25 15:25 | 55.60972 | 12.67796 | 196 ft | 112 kts | 301° |
| 2026-04-25 15:25 | 55.61401 | 12.66659 | 53 ft | 110 kts | 300° |
| 2026-04-25 15:26 | 55.61789 | 12.65599 | 19 ft | 86 kts | 303° |
| 2026-04-25 15:26 | 55.62035 | 12.64941 | 18 ft | 41 kts | 303° |
| 2026-04-25 15:26 | 55.62149 | 12.64636 | 20 ft | 29 kts | 301° |
| 2026-04-25 15:26 | 55.62295 | 12.64422 | 17 ft | 25 kts | 358° |
| 2026-04-25 15:27 | 55.62397 | 12.64455 | 17 ft | 0 kts | 13° |
| 2026-04-25 15:27 | 55.62461 | 12.64485 | 17 ft | 8 kts | 15° |
| 2026-04-25 15:28 | 55.62508 | 12.64452 | 18 ft | 9 kts | 317° |
| 2026-04-25 15:28 | 55.62526 | 12.64399 | 18 ft | 11 kts | 300° |
| 2026-04-25 15:28 | 55.62558 | 12.64308 | 17 ft | 15 kts | 302° |
| 2026-04-25 15:29 | 55.62641 | 12.64299 | 17 ft | 13 kts | 28° |
| 2026-04-25 15:29 | 55.62681 | 12.64327 | 17 ft | 0 kts | 21° |
| 2026-04-25 15:29 | 55.62687 | 12.64346 | 18 ft | 5 kts | 72° |
| 2026-04-25 15:29 | 55.62672 | 12.64412 | 19 ft | 0 kts | 98° |
| 2026-04-25 15:30 | 55.62670 | 12.64432 | 17 ft | 2 kts | 97° |
| 2026-04-25 15:30 | 55.62670 | 12.64440 | 17 ft | 0 kts | 99° |